Terminal Aerodrome Forecast
Issued by NWS

Home | Current Version | Previous Version | Text Only | Print | Product List | Glossary On
Versions: 1 2 3 4 5 6 7 8 9 10 11 12 13 14 15
000
FTUS42 KMLB 301140
TAFISM
TAF
KISM 301140Z 3012/0112 19003KT P6SM FEW035 BKN250
     FM301400 27007KT P6SM VCSH SCT025 SCT150 BKN250
     FM010300 22004KT P6SM FEW020 SCT250=

USA.gov is the U.S. government's official web portal to all federal, state and local government web resources and services.